Time;durP1;ratioP1;P1;durP2;ratioP2;P2;SDS_P1;SDS_P2;PMS_P1;PMS_P2;Temp;Humidity;BMP_temperature;BMP_pressure;BME280_temperature;BME280_humidity;BME280_pressure;Samples;Min_cycle;Max_cycle;Signal;HPM_P1;HPM_P2
2021/03/31 00:00:05;;;;;;;23.77;12.55;;;;;;;;;;5134825;27;20516;-69
2021/03/31 00:02:31;;;;;;;18.55;10.38;;;;;;;;;;5116130;27;20015;-70
2021/03/31 00:04:57;;;;;;;17.40;9.43;;;;;;;;;;5134442;27;20027;-71
2021/03/31 00:07:24;;;;;;;16.20;11.05;;;;;;;;;;5134781;27;20031;-70
2021/03/31 00:09:50;;;;;;;20.92;11.18;;;;;;;;;;5116570;28;20023;-72
2021/03/31 00:12:16;;;;;;;23.08;11.82;;;;;;;;;;5134624;28;20104;-72
2021/03/31 00:14:42;;;;;;;20.35;12.27;;;;;;;;;;5134661;28;20085;-71
2021/03/31 00:17:08;;;;;;;22.55;12.82;;;;;;;;;;5134332;28;20084;-70
2021/03/31 00:19:34;;;;;;;19.35;11.43;;;;;;;;;;5134357;28;20023;-71
2021/03/31 00:22:00;;;;;;;20.65;10.95;;;;;;;;;;5134538;28;20384;-70
2021/03/31 00:24:26;;;;;;;18.30;11.10;;;;;;;;;;5134252;28;20035;-71
2021/03/31 00:26:52;;;;;;;15.77;11.75;;;;;;;;;;5134431;28;20024;-71
2021/03/31 00:29:18;;;;;;;19.80;10.80;;;;;;;;;;5134226;28;20415;-70
2021/03/31 00:31:45;;;;;;;18.77;10.98;;;;;;;;;;5133911;28;20073;-70
2021/03/31 00:34:11;;;;;;;15.85;10.57;;;;;;;;;;5115961;28;20468;-71
2021/03/31 00:36:37;;;;;;;20.92;11.68;;;;;;;;;;5134161;28;20023;-70
2021/03/31 00:39:06;;;;;;;18.13;11.60;;;;;;;;;;5134251;28;20023;-70
2021/03/31 00:41:32;;;;;;;16.60;10.63;;;;;;;;;;5115976;28;20019;-71
2021/03/31 00:43:58;;;;;;;17.73;10.05;;;;;;;;;;5134280;28;20061;-69
2021/03/31 00:46:24;;;;;;;18.73;11.13;;;;;;;;;;5134075;28;20529;-71
2021/03/31 00:48:50;;;;;;;15.13;9.77;;;;;;;;;;5134296;28;20113;-72
2021/03/31 00:51:16;;;;;;;17.83;9.95;;;;;;;;;;5134308;28;20054;-69
2021/03/31 00:53:43;;;;;;;16.15;8.65;;;;;;;;;;5133681;28;20027;-69
2021/03/31 00:56:10;;;;;;;16.92;8.52;;;;;;;;;;5134490;28;20054;-70
2021/03/31 00:58:37;;;;;;;13.43;8.52;;;;;;;;;;5134269;28;20110;-70
2021/03/31 01:01:03;;;;;;;12.82;9.90;;;;;;;;;;5115529;28;20110;-70
2021/03/31 01:03:29;;;;;;;16.90;8.80;;;;;;;;;;5116239;28;20026;-69
2021/03/31 01:05:56;;;;;;;13.52;8.27;;;;;;;;;;5134748;28;20026;-70
2021/03/31 01:08:22;;;;;;;19.05;8.98;;;;;;;;;;5133522;28;20015;-70
2021/03/31 01:10:51;;;;;;;10.40;8.85;;;;;;;;;;5134136;28;20023;-70
2021/03/31 01:13:17;;;;;;;14.25;9.30;;;;;;;;;;5133951;27;20023;-69
2021/03/31 01:15:49;;;;;;;13.80;7.05;;;;;;;;;;5138006;27;20047;-69
2021/03/31 01:18:22;;;;;;;16.23;8.27;;;;;;;;;;5138124;27;20051;-70
2021/03/31 01:20:52;;;;;;;19.73;9.65;;;;;;;;;;5137620;27;20023;-70
2021/03/31 01:23:30;;;;;;;15.98;8.57;;;;;;;;;;5137639;27;20032;-72
2021/03/31 01:26:05;;;;;;;15.95;8.73;;;;;;;;;;5137320;27;20023;-70
2021/03/31 01:28:50;;;;;;;15.57;7.90;;;;;;;;;;5137253;27;20050;-70
2021/03/31 01:31:36;;;;;;;18.10;8.52;;;;;;;;;;5137502;27;20481;-70
2021/03/31 01:34:02;;;;;;;10.85;7.53;;;;;;;;;;5085572;27;20477;-70
2021/03/31 01:36:30;;;;;;;15.82;8.98;;;;;;;;;;5137362;27;20065;-71
2021/03/31 01:39:01;;;;;;;11.30;8.27;;;;;;;;;;5119127;27;20354;-70
2021/03/31 01:41:28;;;;;;;12.70;9.18;;;;;;;;;;5137100;27;20019;-70
2021/03/31 01:43:56;;;;;;;16.65;8.07;;;;;;;;;;5137310;27;20461;-70
2021/03/31 01:46:23;;;;;;;13.88;8.52;;;;;;;;;;5137198;27;20027;-71
2021/03/31 01:48:50;;;;;;;19.65;9.98;;;;;;;;;;5118531;27;20043;-71
2021/03/31 01:51:18;;;;;;;19.63;10.50;;;;;;;;;;5137198;27;20027;-70
2021/03/31 01:53:44;;;;;;;15.25;9.43;;;;;;;;;;5118524;27;20792;-71
2021/03/31 01:56:11;;;;;;;13.50;8.20;;;;;;;;;;5118324;27;20515;-70
2021/03/31 01:58:38;;;;;;;15.65;9.45;;;;;;;;;;5118576;27;20457;-71
2021/03/31 02:01:04;;;;;;;14.30;9.75;;;;;;;;;;5118524;27;20020;-71
2021/03/31 02:03:31;;;;;;;16.90;9.13;;;;;;;;;;5136677;27;20034;-69
2021/03/31 02:05:58;;;;;;;12.00;8.63;;;;;;;;;;5136904;27;20019;-72
2021/03/31 02:08:25;;;;;;;14.63;8.13;;;;;;;;;;5137103;27;20022;-69
2021/03/31 02:10:51;;;;;;;16.17;8.80;;;;;;;;;;5136330;27;20358;-72
2021/03/31 02:13:18;;;;;;;13.38;8.57;;;;;;;;;;5136383;27;20258;-71
2021/03/31 02:15:45;;;;;;;12.85;8.52;;;;;;;;;;5095697;28;20118;-72
2021/03/31 02:18:12;;;;;;;10.93;8.23;;;;;;;;;;5094166;28;20024;-67
2021/03/31 02:20:38;;;;;;;15.02;9.68;;;;;;;;;;5095750;28;20055;-67
2021/03/31 02:23:05;;;;;;;12.48;9.10;;;;;;;;;;5094025;28;20051;-68
2021/03/31 02:25:32;;;;;;;14.60;8.50;;;;;;;;;;5095177;28;20020;-68
2021/03/31 02:27:59;;;;;;;13.57;8.73;;;;;;;;;;5094132;28;20252;-69
2021/03/31 02:30:27;;;;;;;13.05;8.32;;;;;;;;;;5095328;28;20016;-67
2021/03/31 02:32:56;;;;;;;10.57;8.20;;;;;;;;;;5094076;28;20024;-67
2021/03/31 02:35:24;;;;;;;18.67;11.13;;;;;;;;;;5095195;28;20478;-68
2021/03/31 02:37:53;;;;;;;17.70;11.02;;;;;;;;;;5094976;28;20032;-70
2021/03/31 02:40:20;;;;;;;17.70;11.80;;;;;;;;;;5095470;28;20023;-67
2021/03/31 02:42:46;;;;;;;16.38;9.88;;;;;;;;;;5094897;28;20470;-67
2021/03/31 02:45:14;;;;;;;15.33;9.50;;;;;;;;;;5095086;28;20038;-68
2021/03/31 02:47:41;;;;;;;14.55;9.90;;;;;;;;;;5094791;28;20614;-69
2021/03/31 02:50:08;;;;;;;14.98;10.57;;;;;;;;;;5095321;28;20031;-68
2021/03/31 02:52:35;;;;;;;17.42;11.23;;;;;;;;;;5094917;28;20369;-67
2021/03/31 02:55:02;;;;;;;15.57;10.88;;;;;;;;;;5095145;28;20044;-66
2021/03/31 02:57:28;;;;;;;15.65;9.65;;;;;;;;;;5094200;28;20024;-68
2021/03/31 02:59:55;;;;;;;12.85;10.32;;;;;;;;;;5094640;28;20553;-68
2021/03/31 03:02:21;;;;;;;20.98;10.95;;;;;;;;;;5093499;28;20028;-68
2021/03/31 03:04:48;;;;;;;13.93;10.73;;;;;;;;;;5093524;28;20028;-69
2021/03/31 03:07:15;;;;;;;18.30;9.82;;;;;;;;;;5094133;28;20028;-67
2021/03/31 03:09:41;;;;;;;15.85;10.30;;;;;;;;;;5094413;28;20016;-66
2021/03/31 03:12:09;;;;;;;18.17;10.35;;;;;;;;;;5094056;28;20423;-66
2021/03/31 03:14:36;;;;;;;17.15;10.38;;;;;;;;;;5103611;28;20090;-68
2021/03/31 03:17:02;;;;;;;16.10;10.95;;;;;;;;;;5113661;28;20023;-69
2021/03/31 03:19:28;;;;;;;13.75;11.02;;;;;;;;;;5112001;28;20042;-69
2021/03/31 03:21:55;;;;;;;15.88;11.55;;;;;;;;;;5099928;28;20470;-68
2021/03/31 03:24:22;;;;;;;18.45;11.85;;;;;;;;;;5108357;28;20034;-69
2021/03/31 03:26:48;;;;;;;;;;;;;;;;;;5103550;28;20088;-68
2021/03/31 03:29:18;;;;;;;16.75;10.55;;;;;;;;;;5102603;28;20413;-69
2021/03/31 03:31:44;;;;;;;16.67;10.48;;;;;;;;;;5093339;28;20543;-69
2021/03/31 03:34:11;;;;;;;15.03;10.30;;;;;;;;;;5092360;28;20034;-67
2021/03/31 03:36:40;;;;;;;13.63;10.10;;;;;;;;;;5093094;28;20477;-70
2021/03/31 03:39:06;;;;;;;16.60;10.07;;;;;;;;;;5093679;28;20445;-68
2021/03/31 03:41:33;;;;;;;19.23;11.32;;;;;;;;;;5093662;28;20027;-68
2021/03/31 03:43:59;;;;;;;10.80;9.25;;;;;;;;;;5099865;28;20030;-69
2021/03/31 03:46:29;;;;;;;14.15;10.50;;;;;;;;;;5104415;28;20027;-70
2021/03/31 03:48:57;;;;;;;15.93;11.85;;;;;;;;;;5099748;28;20024;-69
2021/03/31 03:51:24;;;;;;;18.65;12.63;;;;;;;;;;5093956;28;20024;-70
2021/03/31 03:53:50;;;;;;;16.48;12.05;;;;;;;;;;5098819;28;20036;-69
2021/03/31 03:56:16;;;;;;;23.13;16.63;;;;;;;;;;5109093;28;20038;-70
2021/03/31 03:58:43;;;;;;;23.00;17.15;;;;;;;;;;5113004;28;20031;-69
2021/03/31 04:01:09;;;;;;;16.77;12.13;;;;;;;;;;5113934;28;20023;-70
2021/03/31 04:03:35;;;;;;;19.20;11.70;;;;;;;;;;5114228;28;20354;-70
2021/03/31 04:06:01;;;;;;;19.42;11.77;;;;;;;;;;5112015;28;20023;-68
2021/03/31 04:08:27;;;;;;;18.00;10.20;;;;;;;;;;5113331;28;20024;-70
2021/03/31 04:10:55;;;;;;;18.65;11.18;;;;;;;;;;5112672;28;20031;-67
2021/03/31 04:13:22;;;;;;;15.00;9.20;;;;;;;;;;5112015;28;20015;-69
2021/03/31 04:15:50;;;;;;;18.38;8.95;;;;;;;;;;5132078;28;20441;-69
2021/03/31 04:18:17;;;;;;;18.98;9.68;;;;;;;;;;5132373;28;20019;-66
2021/03/31 04:20:44;;;;;;;15.82;9.52;;;;;;;;;;5132339;28;20023;-67
2021/03/31 04:23:10;;;;;;;17.85;9.48;;;;;;;;;;5132257;28;20048;-66
2021/03/31 04:25:36;;;;;;;18.35;9.80;;;;;;;;;;5133017;28;20051;-67
2021/03/31 04:28:04;;;;;;;13.77;8.20;;;;;;;;;;5133423;28;20362;-67
2021/03/31 04:30:30;;;;;;;;;;;;;;;;;;5134400;28;20023;-69
2021/03/31 04:32:57;;;;;;;15.15;8.45;;;;;;;;;;5116339;28;19953;-70
2021/03/31 04:35:23;;;;;;;21.30;11.57;;;;;;;;;;5134132;28;20058;-69
2021/03/31 04:37:49;;;;;;;18.77;9.85;;;;;;;;;;5134167;28;20023;-69
2021/03/31 04:40:18;;;;;;;14.53;10.00;;;;;;;;;;5134710;28;20023;-67
2021/03/31 04:42:44;;;;;;;17.30;10.65;;;;;;;;;;5115926;28;20279;-67
2021/03/31 04:45:12;;;;;;;18.95;9.90;;;;;;;;;;5134101;28;20101;-69
2021/03/31 04:47:38;;;;;;;21.67;10.65;;;;;;;;;;5134370;27;20023;-68
2021/03/31 04:50:06;;;;;;;18.30;9.93;;;;;;;;;;5118762;27;20471;-67
2021/03/31 04:52:32;;;;;;;15.00;9.80;;;;;;;;;;5138025;27;20034;-68
2021/03/31 04:54:58;;;;;;;20.15;8.95;;;;;;;;;;5138128;27;20059;-71
2021/03/31 04:57:24;;;;;;;15.18;8.93;;;;;;;;;;5137884;27;20046;-66
2021/03/31 04:59:50;;;;;;;14.77;8.60;;;;;;;;;;5137870;27;20400;-64
2021/03/31 05:02:16;;;;;;;14.43;9.13;;;;;;;;;;5138108;27;20023;-67
2021/03/31 05:04:42;;;;;;;17.42;9.00;;;;;;;;;;5137958;27;20106;-69
2021/03/31 05:07:09;;;;;;;23.83;10.52;;;;;;;;;;5138269;27;20027;-66
2021/03/31 05:09:35;;;;;;;20.95;9.95;;;;;;;;;;5119527;27;20023;-66
2021/03/31 05:12:01;;;;;;;18.77;9.82;;;;;;;;;;5137613;27;20022;-67
2021/03/31 05:14:28;;;;;;;17.93;10.93;;;;;;;;;;5137873;27;20077;-67
2021/03/31 05:16:54;;;;;;;16.48;9.35;;;;;;;;;;5138313;27;20244;-67
2021/03/31 05:19:20;;;;;;;20.17;9.75;;;;;;;;;;5119064;27;20016;-66
2021/03/31 05:21:46;;;;;;;18.83;9.15;;;;;;;;;;5138022;27;20031;-67
2021/03/31 05:24:12;;;;;;;17.80;10.80;;;;;;;;;;5137713;27;20450;-65
2021/03/31 05:26:38;;;;;;;24.65;10.43;;;;;;;;;;5131976;27;20034;-69
2021/03/31 05:29:04;;;;;;;18.88;9.60;;;;;;;;;;5108105;27;20026;-70
2021/03/31 05:31:31;;;;;;;20.35;9.25;;;;;;;;;;5106293;27;20024;-70
2021/03/31 05:33:57;;;;;;;16.08;9.50;;;;;;;;;;5125695;27;20027;-69
2021/03/31 05:36:23;;;;;;;16.70;9.15;;;;;;;;;;5125790;27;20019;-70
2021/03/31 05:38:49;;;;;;;16.67;9.18;;;;;;;;;;5106146;27;20388;-69
2021/03/31 05:41:16;;;;;;;18.40;9.77;;;;;;;;;;5126212;27;20019;-66
2021/03/31 05:43:42;;;;;;;15.05;9.32;;;;;;;;;;5125793;27;20025;-69
2021/03/31 05:46:08;;;;;;;13.32;9.20;;;;;;;;;;5105870;27;20396;-69
2021/03/31 05:48:35;;;;;;;18.40;8.83;;;;;;;;;;5124708;27;20019;-67
2021/03/31 05:51:01;;;;;;;19.67;9.80;;;;;;;;;;5120258;27;20422;-68
2021/03/31 05:53:27;;;;;;;18.77;10.02;;;;;;;;;;5116149;28;20027;-68
2021/03/31 05:55:53;;;;;;;16.73;9.70;;;;;;;;;;5116822;28;20038;-68
2021/03/31 05:58:21;;;;;;;23.33;10.10;;;;;;;;;;5116479;28;20024;-68
2021/03/31 06:00:48;;;;;;;19.33;8.95;;;;;;;;;;5115716;28;20024;-68
2021/03/31 06:03:14;;;;;;;21.15;9.25;;;;;;;;;;5116935;28;20046;-68
2021/03/31 06:05:41;;;;;;;19.17;8.98;;;;;;;;;;5116275;28;20026;-68
2021/03/31 06:08:07;;;;;;;14.70;9.43;;;;;;;;;;5115720;28;20350;-68
2021/03/31 06:10:36;;;;;;;16.40;9.35;;;;;;;;;;5116475;28;20023;-67
2021/03/31 06:13:05;;;;;;;17.05;10.25;;;;;;;;;;5097868;28;20416;-68
2021/03/31 06:15:38;;;;;;;22.42;9.98;;;;;;;;;;5115450;28;20134;-68
2021/03/31 06:18:07;;;;;;;22.02;10.50;;;;;;;;;;5098306;28;20437;-68
2021/03/31 06:20:49;;;;;;;22.55;10.20;;;;;;;;;;5115773;28;20016;-68
2021/03/31 06:26:22;;;;;;;15.38;9.55;;;;;;;;;;5116049;28;20038;-67
2021/03/31 06:28:53;;;;;;;20.40;9.57;;;;;;;;;;5097161;28;20035;-65
2021/03/31 06:31:19;;;;;;;17.85;10.82;;;;;;;;;;5097502;28;20028;-66
2021/03/31 06:33:46;;;;;;;15.32;8.27;;;;;;;;;;5116049;28;20027;-67
2021/03/31 06:36:14;;;;;;;25.17;11.52;;;;;;;;;;5115465;28;20020;-67
2021/03/31 06:38:46;;;;;;;;;;;;;;;;;;5116089;28;20474;-67
2021/03/31 06:41:34;;;;;;;21.15;18.70;;;;;;;;;;5115758;28;19903;-68
2021/03/31 06:44:22;;;;;;;43.85;32.70;;;;;;;;;;5115366;28;20491;-67
2021/03/31 06:46:59;;;;;;;23.05;14.18;;;;;;;;;;5115549;28;20061;-69
2021/03/31 06:49:25;;;;;;;20.27;10.67;;;;;;;;;;5096935;28;20027;-69
2021/03/31 06:51:51;;;;;;;17.77;11.18;;;;;;;;;;5115384;28;20348;-67
2021/03/31 06:54:19;;;;;;;23.27;12.45;;;;;;;;;;5097008;28;20023;-67
2021/03/31 06:56:46;;;;;;;25.60;15.05;;;;;;;;;;5115291;28;20347;-67
2021/03/31 06:59:12;;;;;;;23.92;13.30;;;;;;;;;;5115563;28;20028;-67
2021/03/31 07:01:40;;;;;;;29.30;13.77;;;;;;;;;;5115540;28;20081;-68
2021/03/31 07:04:06;;;;;;;29.70;16.70;;;;;;;;;;5114596;28;20359;-68
2021/03/31 07:06:33;;;;;;;25.20;19.23;;;;;;;;;;5115420;28;20054;-67
2021/03/31 07:08:59;;;;;;;25.52;12.50;;;;;;;;;;5097068;28;20054;-67
2021/03/31 07:11:51;;;;;;;18.17;12.60;;;;;;;;;;5095693;28;20039;-68
2021/03/31 07:14:18;;;;;;;25.90;14.32;;;;;;;;;;5091977;28;20048;-67
2021/03/31 07:16:45;;;;;;;24.13;12.95;;;;;;;;;;5115547;28;20024;-68
2021/03/31 07:19:12;;;;;;;20.52;13.15;;;;;;;;;;5114357;28;20055;-69
2021/03/31 07:21:38;;;;;;;15.38;12.52;;;;;;;;;;5096604;28;20268;-65
2021/03/31 07:24:06;;;;;;;24.05;16.70;;;;;;;;;;5114586;28;20059;-64
2021/03/31 07:26:33;;;;;;;25.42;16.75;;;;;;;;;;5115334;28;20027;-64
2021/03/31 07:28:59;;;;;;;;;;;;;;;;;;5115159;28;20519;-65
2021/03/31 07:31:27;;;;;;;49.22;21.85;;;;;;;;;;5114092;28;19904;-65
2021/03/31 07:34:12;;;;;;;28.48;17.00;;;;;;;;;;5114613;28;20458;-66
2021/03/31 07:36:43;;;;;;;41.90;21.60;;;;;;;;;;5114602;28;20084;-65
2021/03/31 07:39:09;;;;;;;21.63;11.98;;;;;;;;;;5114507;28;20019;-66
2021/03/31 07:41:38;;;;;;;17.70;11.68;;;;;;;;;;5114610;28;20046;-66
2021/03/31 07:44:04;;;;;;;25.33;13.75;;;;;;;;;;5115024;28;20030;-67
2021/03/31 07:46:33;;;;;;;27.48;15.05;;;;;;;;;;5114272;28;20062;-66
2021/03/31 07:48:59;;;;;;;32.38;16.08;;;;;;;;;;5114417;28;20534;-67
2021/03/31 07:51:27;;;;;;;29.58;17.30;;;;;;;;;;5114157;28;20484;-65
2021/03/31 07:53:55;;;;;;;33.30;15.68;;;;;;;;;;5113682;28;20419;-65
2021/03/31 07:56:28;;;;;;;;;;;;;;;;;;5114709;28;20077;-65
2021/03/31 07:59:03;;;;;;;20.38;11.05;;;;;;;;;;5114869;28;19911;-66
2021/03/31 08:01:50;;;;;;;18.77;10.43;;;;;;;;;;5114524;28;20035;-65
2021/03/31 08:04:17;;;;;;;22.27;11.38;;;;;;;;;;5114387;28;20466;-66
2021/03/31 08:06:43;;;;;;;;;;;;;;;;;;5114570;28;20029;-65
2021/03/31 08:09:11;;;;;;;23.92;10.75;;;;;;;;;;5114198;28;19903;-65
2021/03/31 08:11:37;;;;;;;;;;;;;;;;;;5114858;28;20472;-66
2021/03/31 08:14:04;;;;;;;14.27;8.43;;;;;;;;;;5113572;28;20303;-65
2021/03/31 08:16:36;;;;;;;14.52;7.43;;;;;;;;;;5114083;28;20066;-65
2021/03/31 08:19:03;;;;;;;10.85;6.72;;;;;;;;;;5114568;28;20012;-66
2021/03/31 08:21:30;;;;;;;17.40;6.82;;;;;;;;;;5113965;28;20020;-66
2021/03/31 08:23:57;;;;;;;9.68;5.53;;;;;;;;;;5117289;28;20473;-66
2021/03/31 08:26:42;;;;;;;12.45;5.85;;;;;;;;;;5118511;28;20511;-66
2021/03/31 08:29:20;;;;;;;15.23;6.25;;;;;;;;;;5117940;28;20050;-66
2021/03/31 08:31:48;;;;;;;9.52;5.00;;;;;;;;;;5118368;28;20023;-65
2021/03/31 08:34:15;;;;;;;13.63;5.78;;;;;;;;;;5117676;28;20458;-66
2021/03/31 08:36:42;;;;;;;9.68;5.07;;;;;;;;;;5118257;28;20031;-66
2021/03/31 08:39:09;;;;;;;14.73;4.45;;;;;;;;;;5118046;28;20019;-66
2021/03/31 08:41:38;;;;;;;9.43;4.80;;;;;;;;;;5117682;28;20055;-66
2021/03/31 08:44:12;;;;;;;7.28;4.60;;;;;;;;;;5117640;28;20489;-66
2021/03/31 08:46:38;;;;;;;7.13;3.53;;;;;;;;;;5099600;28;20031;-65
2021/03/31 08:49:05;;;;;;;11.23;3.95;;;;;;;;;;5117867;28;20103;-64
2021/03/31 08:51:31;;;;;;;5.88;3.38;;;;;;;;;;5117804;28;20412;-65
2021/03/31 08:54:03;;;;;;;6.15;4.10;;;;;;;;;;5117712;28;20063;-62
2021/03/31 08:56:29;;;;;;;5.85;3.00;;;;;;;;;;5117381;28;20088;-63
2021/03/31 08:58:56;;;;;;;7.55;3.28;;;;;;;;;;5118219;28;20027;-62
2021/03/31 09:01:22;;;;;;;;;;;;;;;;;;5117983;28;20024;-62
2021/03/31 09:03:48;;;;;;;8.18;3.40;;;;;;;;;;5117151;28;20285;-62
2021/03/31 09:06:18;;;;;;;8.25;3.78;;;;;;;;;;5117923;28;20485;-63
2021/03/31 09:08:47;;;;;;;6.65;3.40;;;;;;;;;;5117161;28;20377;-62
2021/03/31 09:11:46;;;;;;;5.18;3.83;;;;;;;;;;5132635;27;20455;-63
2021/03/31 09:14:30;;;;;;;6.43;3.67;;;;;;;;;;5111819;28;20032;-63
2021/03/31 09:17:01;;;;;;;5.95;3.90;;;;;;;;;;5111730;28;20052;-63
2021/03/31 09:19:29;;;;;;;40.10;6.68;;;;;;;;;;5112280;28;20024;-64
2021/03/31 09:21:55;;;;;;;57.17;9.20;;;;;;;;;;5111636;28;20016;-63
2021/03/31 09:24:23;;;;;;;8.00;4.18;;;;;;;;;;5111890;28;20027;-63
2021/03/31 09:26:58;;;;;;;14.50;4.80;;;;;;;;;;5110908;28;20076;-62
2021/03/31 09:29:25;;;;;;;16.98;6.53;;;;;;;;;;5111162;28;20035;-63
2021/03/31 09:31:51;;;;;;;7.90;3.60;;;;;;;;;;5111117;28;20016;-63
2021/03/31 09:34:18;;;;;;;6.35;3.30;;;;;;;;;;5111191;28;20418;-63
2021/03/31 09:37:04;;;;;;;4.25;3.25;;;;;;;;;;5111674;28;20020;-64
2021/03/31 09:39:49;;;;;;;10.75;4.65;;;;;;;;;;5110751;28;20011;-62
2021/03/31 09:42:20;;;;;;;5.68;3.75;;;;;;;;;;5110962;28;20072;-62
2021/03/31 09:44:47;;;;;;;3.28;2.90;;;;;;;;;;5111092;28;20028;-62
2021/03/31 09:47:14;;;;;;;5.30;3.08;;;;;;;;;;5111185;28;20047;-64
2021/03/31 09:49:43;;;;;;;20.48;4.85;;;;;;;;;;5110718;28;20020;-63
2021/03/31 09:52:09;;;;;;;17.33;4.85;;;;;;;;;;5111037;28;20020;-63
2021/03/31 09:54:35;;;;;;;19.13;6.67;;;;;;;;;;5110804;28;20467;-63
2021/03/31 09:57:02;;;;;;;6.30;4.28;;;;;;;;;;5111023;28;20016;-63
2021/03/31 09:59:29;;;;;;;11.50;3.53;;;;;;;;;;5110778;28;20057;-63
2021/03/31 10:01:55;;;;;;;5.53;3.00;;;;;;;;;;5110604;28;20519;-63
2021/03/31 10:22:08;;;;;;;7.05;2.33;;;;;;;;;;5111825;27;20109;-60
2021/03/31 10:24:35;;;;;;;35.07;4.13;;;;;;;;;;5111586;28;20034;-61
2021/03/31 10:27:01;;;;;;;;;;;;;;;;;;5112081;28;20024;-60
2021/03/31 10:29:27;;;;;;;3.93;2.83;;;;;;;;;;5111710;28;19906;-61
2021/03/31 10:31:54;;;;;;;5.30;2.88;;;;;;;;;;5111348;28;20156;-62
2021/03/31 10:34:20;;;;;;;;;;;;;;;;;;5112287;28;20460;-61
2021/03/31 10:36:56;;;;;;;4.70;3.37;;;;;;;;;;5110967;28;19907;-62
2021/03/31 10:50:28;;;;;;;3.95;2.58;;;;;;;;;;5111462;28;20039;-63
2021/03/31 10:52:58;;;;;;;6.90;2.55;;;;;;;;;;5110660;28;20012;-62
2021/03/31 10:55:24;;;;;;;4.15;2.67;;;;;;;;;;5111500;28;20352;-62
2021/03/31 10:57:51;;;;;;;7.47;2.95;;;;;;;;;;5110797;28;20020;-62
2021/03/31 11:00:17;;;;;;;4.35;2.88;;;;;;;;;;5110763;28;20028;-60
2021/03/31 11:02:43;;;;;;;7.55;2.22;;;;;;;;;;5110789;28;20027;-61
2021/03/31 11:05:09;;;;;;;2.55;2.35;;;;;;;;;;5110653;28;20012;-61
2021/03/31 11:07:36;;;;;;;2.55;2.08;;;;;;;;;;5109688;28;20020;-62
2021/03/31 11:10:02;;;;;;;4.43;2.67;;;;;;;;;;5110911;28;20051;-63
2021/03/31 11:12:28;;;;;;;7.80;2.72;;;;;;;;;;5110251;28;20015;-62
2021/03/31 11:14:56;;;;;;;11.65;2.03;;;;;;;;;;5111095;28;20031;-60
2021/03/31 11:18:07;;;;;;;8.63;2.22;;;;;;;;;;5110524;28;20383;-62
2021/03/31 11:20:26;;;;;;;2.92;1.25;;;;;;;;;;5109916;28;20047;-62
2021/03/31 11:25:53;;;;;;;2.17;1.83;;;;;;;;;;5130618;28;20482;-62
2021/03/31 11:28:19;;;;;;;3.58;2.58;;;;;;;;;;5130858;28;20113;-61
2021/03/31 11:30:46;;;;;;;4.32;1.77;;;;;;;;;;5131063;28;20023;-61
2021/03/31 11:33:12;;;;;;;3.55;2.15;;;;;;;;;;5117551;28;20031;-63
2021/03/31 11:35:38;;;;;;;3.33;2.22;;;;;;;;;;5116947;28;20011;-62
2021/03/31 11:38:04;;;;;;;3.20;2.00;;;;;;;;;;5117513;28;20042;-61
2021/03/31 11:40:31;;;;;;;4.15;2.65;;;;;;;;;;5116816;28;20478;-62
2021/03/31 11:42:57;;;;;;;6.43;2.43;;;;;;;;;;5116833;28;20019;-63
2021/03/31 11:45:23;;;;;;;3.97;1.73;;;;;;;;;;5117082;28;20047;-64
2021/03/31 11:47:49;;;;;;;2.90;1.75;;;;;;;;;;5116889;28;20069;-66
2021/03/31 11:50:16;;;;;;;4.23;2.17;;;;;;;;;;5116986;28;20023;-65
2021/03/31 11:52:42;;;;;;;3.58;2.00;;;;;;;;;;5117496;28;20132;-65
2021/03/31 11:55:08;;;;;;;2.70;2.43;;;;;;;;;;5116616;28;20027;-66
2021/03/31 11:57:35;;;;;;;4.18;3.30;;;;;;;;;;5116989;28;20022;-66
2021/03/31 12:00:01;;;;;;;4.50;2.03;;;;;;;;;;5116773;28;20405;-66
2021/03/31 12:02:27;;;;;;;3.47;2.50;;;;;;;;;;5116409;28;20248;-68
2021/03/31 12:04:54;;;;;;;4.23;2.03;;;;;;;;;;5116991;28;20043;-61
2021/03/31 12:07:20;;;;;;;4.35;2.60;;;;;;;;;;5116660;28;20251;-63
2021/03/31 12:09:47;;;;;;;6.22;2.95;;;;;;;;;;5097992;28;20442;-61
2021/03/31 12:12:13;;;;;;;;;;;;;;;;;;5116988;28;20102;-63
2021/03/31 12:14:40;;;;;;;8.18;3.78;;;;;;;;;;5115920;28;19943;-63
2021/03/31 12:17:06;;;;;;;4.82;2.42;;;;;;;;;;5116484;28;20098;-63
2021/03/31 12:19:33;;;;;;;6.10;2.97;;;;;;;;;;5098407;28;20022;-63
2021/03/31 12:21:59;;;;;;;4.85;3.08;;;;;;;;;;5097817;28;20049;-62
2021/03/31 12:24:25;;;;;;;4.93;2.47;;;;;;;;;;5116535;28;20321;-62
2021/03/31 12:26:52;;;;;;;4.60;2.60;;;;;;;;;;5116520;28;20440;-62
2021/03/31 12:29:18;;;;;;;4.70;3.10;;;;;;;;;;5097590;28;20015;-61
2021/03/31 12:31:45;;;;;;;4.78;3.17;;;;;;;;;;5116116;28;20038;-61
2021/03/31 12:34:12;;;;;;;5.05;2.70;;;;;;;;;;5115766;28;20396;-62
2021/03/31 12:36:38;;;;;;;7.00;2.80;;;;;;;;;;5115723;28;20094;-61
2021/03/31 12:39:05;;;;;;;7.90;3.70;;;;;;;;;;5116297;28;20055;-62
2021/03/31 12:41:32;;;;;;;2.17;2.00;;;;;;;;;;5115593;28;20045;-62
2021/03/31 12:43:59;;;;;;;4.32;2.50;;;;;;;;;;5114646;28;20020;-61
2021/03/31 12:46:25;;;;;;;4.28;2.92;;;;;;;;;;5115876;28;20073;-63
2021/03/31 12:48:51;;;;;;;4.53;2.13;;;;;;;;;;5115861;28;20027;-63
2021/03/31 12:51:36;;;;;;;4.35;1.90;;;;;;;;;;5115468;28;20244;-62
2021/03/31 12:56:39;;;;;;;2.75;2.20;;;;;;;;;;5115415;28;20530;-62
2021/03/31 12:59:05;;;;;;;7.03;1.83;;;;;;;;;;5115637;28;20019;-65
2021/03/31 13:01:31;;;;;;;4.30;2.15;;;;;;;;;;5115444;28;20092;-66
2021/03/31 13:03:57;;;;;;;7.33;2.73;;;;;;;;;;5115466;28;20015;-64
2021/03/31 13:06:29;;;;;;;5.13;2.03;;;;;;;;;;5115494;28;20016;-64
2021/03/31 13:08:56;;;;;;;5.68;3.00;;;;;;;;;;5115151;28;20016;-66
2021/03/31 13:11:23;;;;;;;;;;;;;;;;;;5115296;28;20038;-67
2021/03/31 13:24:47;;;;;;;3.55;2.30;;;;;;;;;;5084562;28;20447;-67
2021/03/31 13:35:00;;;;;;;3.97;2.58;;;;;;;;;;5113412;28;20020;-66
2021/03/31 13:37:30;;;;;;;4.85;2.70;;;;;;;;;;5113636;28;20016;-67
2021/03/31 13:39:58;;;;;;;6.57;1.58;;;;;;;;;;5112740;28;20016;-67
2021/03/31 13:42:24;;;;;;;3.47;2.10;;;;;;;;;;5093592;28;20073;-67
2021/03/31 13:44:50;;;;;;;6.03;2.33;;;;;;;;;;5093132;28;20099;-66
2021/03/31 13:47:26;;;;;;;3.60;1.97;;;;;;;;;;5093637;28;20055;-66
2021/03/31 13:49:55;;;;;;;12.05;3.88;;;;;;;;;;5093346;28;20844;-66
2021/03/31 13:52:33;;;;;;;4.30;2.72;;;;;;;;;;5092687;28;20141;-66
2021/03/31 13:55:02;;;;;;;4.15;2.35;;;;;;;;;;5093376;28;20019;-66
2021/03/31 13:57:32;;;;;;;14.02;11.07;;;;;;;;;;5094305;28;20067;-66
2021/03/31 13:59:58;;;;;;;10.68;9.05;;;;;;;;;;5093701;28;20028;-67
2021/03/31 14:02:24;;;;;;;18.20;12.10;;;;;;;;;;5094214;28;20016;-66
2021/03/31 14:04:50;;;;;;;9.15;8.23;;;;;;;;;;5093895;28;20410;-66
2021/03/31 14:07:17;;;;;;;2.73;2.37;;;;;;;;;;5093822;28;20452;-66
2021/03/31 14:09:43;;;;;;;6.15;1.90;;;;;;;;;;5094092;28;20020;-66
2021/03/31 14:12:10;;;;;;;3.07;1.93;;;;;;;;;;5094071;28;20016;-67
2021/03/31 14:14:36;;;;;;;8.80;2.70;;;;;;;;;;5093896;28;20070;-67
2021/03/31 14:17:05;;;;;;;3.58;1.92;;;;;;;;;;5093720;28;20341;-67
2021/03/31 14:19:37;;;;;;;5.10;2.28;;;;;;;;;;5093773;28;20012;-68
2021/03/31 14:22:03;;;;;;;5.13;2.90;;;;;;;;;;5093433;28;20349;-67
2021/03/31 14:24:29;;;;;;;4.20;3.67;;;;;;;;;;5094153;28;20492;-66
2021/03/31 14:26:55;;;;;;;4.67;2.23;;;;;;;;;;5093680;28;20054;-66
2021/03/31 14:29:21;;;;;;;35.45;25.38;;;;;;;;;;5093576;28;20099;-66
2021/03/31 14:31:47;;;;;;;32.63;23.95;;;;;;;;;;5093565;28;20421;-66
2021/03/31 14:34:14;;;;;;;2.93;2.63;;;;;;;;;;5093550;28;20024;-66
2021/03/31 14:36:40;;;;;;;3.35;2.47;;;;;;;;;;5093489;28;20146;-67
2021/03/31 14:39:14;;;;;;;6.30;3.03;;;;;;;;;;5094088;28;20016;-67
2021/03/31 14:41:41;;;;;;;4.45;3.35;;;;;;;;;;5093321;28;20273;-66
2021/03/31 14:44:07;;;;;;;2.65;2.45;;;;;;;;;;5075663;28;20020;-66
2021/03/31 14:46:34;;;;;;;5.13;3.15;;;;;;;;;;5093756;28;20070;-67
2021/03/31 14:49:01;;;;;;;5.90;3.17;;;;;;;;;;5093605;28;20030;-66
2021/03/31 14:51:30;;;;;;;4.22;3.25;;;;;;;;;;5093759;28;20063;-66
2021/03/31 14:56:49;;;;;;;30.73;23.13;;;;;;;;;;5093093;28;20027;-66
2021/03/31 14:59:39;;;;;;;6.05;5.47;;;;;;;;;;5093661;28;20023;-67
2021/03/31 15:02:05;;;;;;;3.10;2.38;;;;;;;;;;5094301;28;20020;-66
2021/03/31 15:04:31;;;;;;;4.77;2.53;;;;;;;;;;5093554;28;20028;-66
2021/03/31 15:06:57;;;;;;;3.53;2.92;;;;;;;;;;5094680;28;20062;-66
2021/03/31 15:09:23;;;;;;;2.63;2.22;;;;;;;;;;5097424;28;20027;-66
2021/03/31 15:11:49;;;;;;;5.97;3.70;;;;;;;;;;5097069;28;20027;-67
2021/03/31 15:14:16;;;;;;;5.30;3.13;;;;;;;;;;5097046;28;20099;-67
2021/03/31 15:16:42;;;;;;;4.35;2.45;;;;;;;;;;5096966;28;20020;-67
2021/03/31 15:19:31;;;;;;;5.47;3.60;;;;;;;;;;5097943;28;20503;-68
2021/03/31 15:24:26;;;;;;;9.63;4.38;;;;;;;;;;5096938;28;20043;-67
2021/03/31 15:26:53;;;;;;;3.83;3.43;;;;;;;;;;5096994;28;20104;-69
2021/03/31 15:29:19;;;;;;;6.70;3.03;;;;;;;;;;5096755;28;20023;-71
2021/03/31 15:31:45;;;;;;;13.00;3.40;;;;;;;;;;5096469;28;20403;-71
2021/03/31 15:34:12;;;;;;;9.40;3.20;;;;;;;;;;5096915;28;20448;-70
2021/03/31 15:36:38;;;;;;;3.73;3.00;;;;;;;;;;5097436;28;20020;-71
2021/03/31 15:39:05;;;;;;;3.55;2.88;;;;;;;;;;5078287;28;20335;-71